createdAt,value
2022-09-14T00:01:36.616Z,5.90
2022-09-14T00:04:11.418Z,5.20
2022-09-14T00:06:38.912Z,8.07
2022-09-14T00:09:06.953Z,4.78
2022-09-14T00:11:36.135Z,7.03
2022-09-14T00:14:04.047Z,4.57
2022-09-14T00:16:38.747Z,6.55
2022-09-14T00:19:15.543Z,7.28
2022-09-14T00:21:42.546Z,7.55
2022-09-14T00:24:11.024Z,5.25
2022-09-14T00:26:38.088Z,7.57
2022-09-14T00:29:06.047Z,12.85
2022-09-14T00:31:36.437Z,10.00
2022-09-14T00:34:04.816Z,7.95
2022-09-14T00:36:33.729Z,7.43
2022-09-14T00:39:00.721Z,8.05
2022-09-14T00:41:34.254Z,7.90
2022-09-14T00:44:13.230Z,7.93
2022-09-14T00:46:43.873Z,10.13
2022-09-14T00:49:22.170Z,5.97
2022-09-14T00:52:03.935Z,11.68
2022-09-14T00:54:31.436Z,9.52
2022-09-14T00:57:02.728Z,8.20
2022-09-14T00:59:34.865Z,7.45
2022-09-14T01:02:02.361Z,8.77
2022-09-14T01:04:29.343Z,12.30
2022-09-14T01:07:43.401Z,13.13
2022-09-14T01:10:18.964Z,5.53
2022-09-14T01:13:28.885Z,6.63
2022-09-14T01:16:07.796Z,6.97
2022-09-14T01:18:41.207Z,4.63
2022-09-14T01:21:33.945Z,6.78
2022-09-14T01:24:26.873Z,7.55
2022-09-14T01:27:09.798Z,6.72
2022-09-14T01:30:09.927Z,9.40
2022-09-14T01:33:09.928Z,7.68
2022-09-14T01:35:55.592Z,4.72
2022-09-14T01:38:25.534Z,12.10
2022-09-14T01:40:52.685Z,6.93
2022-09-14T01:43:37.644Z,4.80
2022-09-14T01:46:22.613Z,7.10
2022-09-14T01:49:02.287Z,8.05
2022-09-14T01:51:39.668Z,9.40
2022-09-14T01:54:51.085Z,13.05
2022-09-14T01:57:43.137Z,7.82
2022-09-14T02:00:18.010Z,9.32
2022-09-14T02:03:00.776Z,11.10
2022-09-14T02:05:47.071Z,7.47
2022-09-14T02:08:14.027Z,6.55
2022-09-14T02:10:40.941Z,7.53
2022-09-14T02:13:08.392Z,8.20
2022-09-14T02:15:37.096Z,6.35
2022-09-14T02:18:04.861Z,6.30
2022-09-14T02:20:37.694Z,11.23
2022-09-14T02:23:05.614Z,6.30
2022-09-14T02:25:33.102Z,7.43
2022-09-14T02:27:59.843Z,10.07
2022-09-14T02:30:28.116Z,7.70
2022-09-14T02:33:12.718Z,5.22
2022-09-14T02:35:50.654Z,5.97
2022-09-14T02:38:41.558Z,5.50
2022-09-14T02:41:42.296Z,5.40
2022-09-14T02:44:37.699Z,7.95
2022-09-14T02:47:14.280Z,7.28
2022-09-14T02:50:17.821Z,9.98
2022-09-14T02:53:25.558Z,5.15
2022-09-14T02:56:01.860Z,6.72
2022-09-14T02:58:41.528Z,9.25
2022-09-14T03:01:11.554Z,8.40
2022-09-14T03:03:38.774Z,9.02
2022-09-14T03:06:06.116Z,5.07
2022-09-14T03:08:33.454Z,6.38
2022-09-14T03:11:00.237Z,8.70
2022-09-14T03:13:27.067Z,6.15
2022-09-14T03:15:54.112Z,8.90
2022-09-14T03:18:21.020Z,6.88
2022-09-14T03:20:47.911Z,9.02
2022-09-14T03:23:15.262Z,9.27
2022-09-14T03:25:44.453Z,11.15
2022-09-14T03:28:12.620Z,7.50
2022-09-14T03:30:39.591Z,6.68
2022-09-14T03:33:06.460Z,8.23
2022-09-14T03:35:33.388Z,7.13
2022-09-14T03:38:00.826Z,8.57
2022-09-14T03:40:27.874Z,5.43
2022-09-14T03:42:54.843Z,7.05
2022-09-14T03:45:22.255Z,12.25
2022-09-14T03:47:50.095Z,12.88
2022-09-14T03:50:18.537Z,10.30
2022-09-14T03:52:45.330Z,6.43
2022-09-14T03:55:12.166Z,6.20
2022-09-14T03:57:39.269Z,6.00
2022-09-14T04:00:07.702Z,8.57
2022-09-14T04:02:34.796Z,15.20
2022-09-14T04:05:01.748Z,9.20
2022-09-14T04:07:28.778Z,11.38
2022-09-14T04:09:56.199Z,5.82
2022-09-14T04:12:23.058Z,7.95
2022-09-14T04:14:49.888Z,6.90
2022-09-14T04:17:17.534Z,9.07
2022-09-14T04:19:44.315Z,10.02
2022-09-14T04:22:11.279Z,7.15
2022-09-14T04:24:38.088Z,13.15
2022-09-14T04:27:04.922Z,5.63
2022-09-14T04:29:31.777Z,9.65
2022-09-14T04:31:58.560Z,6.25
2022-09-14T04:34:25.433Z,8.30
2022-09-14T04:36:52.248Z,5.35
2022-09-14T04:39:19.248Z,5.82
2022-09-14T04:41:45.977Z,11.90
2022-09-14T04:44:13.549Z,8.35
2022-09-14T04:46:46.181Z,7.70
2022-09-14T04:49:18.655Z,6.28
2022-09-14T04:51:45.670Z,8.43
2022-09-14T04:54:16.444Z,6.60
2022-09-14T04:56:44.282Z,7.93
2022-09-14T04:59:11.821Z,15.15
2022-09-14T05:01:42.136Z,9.43
2022-09-14T05:04:10.351Z,11.38
2022-09-14T05:06:40.027Z,17.40
2022-09-14T05:09:15.254Z,12.60
2022-09-14T05:11:42.703Z,11.23
2022-09-14T05:14:13.192Z,8.32
2022-09-14T05:16:41.866Z,11.20
2022-09-14T05:19:13.886Z,14.57
2022-09-14T05:21:40.838Z,13.48
2022-09-14T05:24:21.474Z,21.90
2022-09-14T05:26:48.326Z,10.52
2022-09-14T05:29:18.141Z,11.18
2022-09-14T05:31:45.794Z,10.07
2022-09-14T05:34:13.659Z,12.68
2022-09-14T05:36:40.585Z,11.30
2022-09-14T05:39:08.310Z,15.27
2022-09-14T05:41:35.371Z,11.25
2022-09-14T05:44:02.370Z,13.10
2022-09-14T05:46:29.141Z,24.17
2022-09-14T05:48:55.956Z,12.00
2022-09-14T05:51:25.210Z,9.32
2022-09-14T05:53:55.499Z,14.40
2022-09-14T05:56:24.416Z,15.02
2022-09-14T05:58:52.429Z,16.60
2022-09-14T06:01:25.878Z,17.45
2022-09-14T06:03:58.272Z,16.90
2022-09-14T06:06:25.010Z,11.98
2022-09-14T06:08:54.250Z,13.35
2022-09-14T06:11:24.960Z,15.23
2022-09-14T06:13:52.177Z,12.55
2022-09-14T06:16:22.177Z,15.85
2022-09-14T06:18:50.147Z,19.20
2022-09-14T06:21:19.969Z,8.10
2022-09-14T06:23:49.447Z,8.80
2022-09-14T06:26:16.720Z,16.42
2022-09-14T06:28:43.975Z,9.00
2022-09-14T06:31:14.311Z,11.30
2022-09-14T06:33:48.688Z,10.98
2022-09-14T06:36:23.391Z,10.80
2022-09-14T06:38:50.998Z,13.98
2022-09-14T06:41:21.658Z,12.98
2022-09-14T06:43:49.378Z,13.57
2022-09-14T06:46:29.866Z,13.90
2022-09-14T06:49:23.024Z,12.18
2022-09-14T06:51:50.990Z,11.30
2022-09-14T06:54:18.709Z,10.70
2022-09-14T06:56:46.734Z,12.80
2022-09-14T06:59:16.058Z,16.38
2022-09-14T07:01:45.434Z,16.42
2022-09-14T07:04:12.836Z,11.63
2022-09-14T07:06:45.933Z,13.73
2022-09-14T07:11:41.019Z,9.45
2022-09-14T07:14:08.854Z,9.30
2022-09-14T07:16:39.025Z,10.93
2022-09-14T07:19:12.954Z,11.25
2022-09-14T07:21:41.262Z,8.90
2022-09-14T07:24:08.480Z,13.88
2022-09-14T07:26:42.657Z,11.30
2022-09-14T07:29:17.633Z,7.10
2022-09-14T07:31:51.260Z,10.45
2022-09-14T07:34:18.975Z,7.53
2022-09-14T07:36:46.486Z,7.32
2022-09-14T07:39:17.293Z,8.00
2022-09-14T07:41:45.809Z,9.38
2022-09-14T07:44:17.847Z,7.43
2022-09-14T07:46:46.277Z,7.18
2022-09-14T07:49:14.680Z,5.55
2022-09-14T07:51:42.200Z,7.25
2022-09-14T07:54:12.562Z,8.13
2022-09-14T07:56:40.447Z,7.95
2022-09-14T08:01:54.073Z,7.55
2022-09-14T08:04:21.224Z,6.82
2022-09-14T08:06:49.403Z,6.60
2022-09-14T08:09:16.335Z,7.78
2022-09-14T08:11:43.164Z,5.75
2022-09-14T08:14:13.177Z,9.90
2022-09-14T08:16:40.917Z,8.20
2022-09-14T08:19:17.115Z,6.63
2022-09-14T08:21:47.335Z,9.65
2022-09-14T08:24:20.518Z,8.65
2022-09-14T08:26:48.681Z,10.35
2022-09-14T08:29:17.330Z,10.75
2022-09-14T08:31:45.671Z,9.02
2022-09-14T08:34:14.749Z,5.68
2022-09-14T08:36:42.972Z,8.60
2022-09-14T08:39:13.280Z,5.80
2022-09-14T08:41:51.341Z,8.18
2022-09-14T08:44:44.757Z,8.02
2022-09-14T08:47:34.320Z,7.82
2022-09-14T08:50:10.751Z,5.25
2022-09-14T08:52:43.968Z,4.85
2022-09-14T08:55:35.595Z,6.38
2022-09-14T08:58:27.204Z,9.15
2022-09-14T09:01:22.647Z,6.22
2022-09-14T09:04:41.176Z,7.75
2022-09-14T09:07:52.492Z,7.63
2022-09-14T09:10:20.288Z,7.57
2022-09-14T09:12:54.450Z,9.85
2022-09-14T09:15:32.455Z,6.15
2022-09-14T09:18:06.928Z,7.38
2022-09-14T09:20:42.922Z,5.70
2022-09-14T09:23:20.038Z,6.72
2022-09-14T09:26:30.976Z,10.27
2022-09-14T09:29:03.373Z,6.80
2022-09-14T09:31:42.137Z,5.53
2022-09-14T09:34:15.244Z,6.60
2022-09-14T09:39:15.383Z,6.38
2022-09-14T09:41:56.882Z,7.85
2022-09-14T09:44:24.014Z,4.82
2022-09-14T09:46:55.541Z,6.53
2022-09-14T09:49:36.533Z,7.38
2022-09-14T09:52:15.952Z,7.05
2022-09-14T09:54:51.357Z,9.25
2022-09-14T09:57:44.456Z,5.70
2022-09-14T10:00:25.035Z,7.18
2022-09-14T10:02:53.488Z,9.85
2022-09-14T10:05:32.514Z,6.78
2022-09-14T10:08:02.495Z,6.30
2022-09-14T10:10:35.318Z,5.63
2022-09-14T10:13:05.514Z,8.50
2022-09-14T10:15:36.541Z,7.82
2022-09-14T10:18:09.118Z,9.07
2022-09-14T10:20:59.597Z,9.75
2022-09-14T10:23:30.584Z,7.13
2022-09-14T10:26:12.606Z,8.77
2022-09-14T10:28:48.631Z,9.40
2022-09-14T10:31:15.460Z,13.43
2022-09-14T10:33:42.720Z,8.85
2022-09-14T10:36:33.577Z,9.43
2022-09-14T10:39:26.533Z,10.05
2022-09-14T10:42:10.298Z,9.85
2022-09-14T10:44:57.698Z,10.75
2022-09-14T10:48:17.630Z,9.57
2022-09-14T10:51:45.054Z,15.70
2022-09-14T10:54:33.318Z,12.32
2022-09-14T10:57:31.204Z,14.95
2022-09-14T11:00:26.461Z,11.63
2022-09-14T11:03:20.089Z,12.73
2022-09-14T11:06:11.573Z,14.27
2022-09-14T11:09:22.581Z,12.90
2022-09-14T11:12:10.343Z,14.68
2022-09-14T11:15:03.716Z,15.90
2022-09-14T11:17:39.981Z,14.48
2022-09-14T11:20:37.513Z,17.13
2022-09-14T11:23:29.298Z,14.50
2022-09-14T11:26:42.358Z,19.83
2022-09-14T11:29:24.432Z,15.80
2022-09-14T11:32:20.280Z,12.43
2022-09-14T11:35:05.787Z,11.30
2022-09-14T11:37:40.144Z,13.02
2022-09-14T11:40:32.014Z,14.52
2022-09-14T11:43:14.759Z,15.43
2022-09-14T11:45:56.342Z,16.60
2022-09-14T11:48:44.458Z,18.08
2022-09-14T11:51:28.017Z,14.77
2022-09-14T11:53:54.881Z,14.85
2022-09-14T11:56:27.434Z,14.50
2022-09-14T11:59:06.969Z,13.02
2022-09-14T12:01:38.451Z,15.13
2022-09-14T12:04:16.805Z,15.60
2022-09-14T12:06:51.753Z,15.27
2022-09-14T12:09:21.311Z,14.23
2022-09-14T12:11:58.338Z,18.77
2022-09-14T12:14:27.774Z,15.13
2022-09-14T12:17:39.437Z,16.70
2022-09-14T12:20:37.186Z,17.65
2022-09-14T12:23:27.883Z,14.63
2022-09-14T12:26:06.685Z,15.25
2022-09-14T12:28:37.183Z,15.65
2022-09-14T12:31:04.018Z,16.13
2022-09-14T12:33:33.477Z,14.05
2022-09-14T12:36:12.462Z,13.15
2022-09-14T12:38:53.933Z,12.25
2022-09-14T12:41:20.607Z,14.88
2022-09-14T12:43:50.787Z,10.93
2022-09-14T12:46:20.920Z,10.60
2022-09-14T12:48:47.987Z,9.73
2022-09-14T12:51:44.514Z,9.32
2022-09-14T12:54:46.044Z,14.30
2022-09-14T12:57:22.013Z,10.30
2022-09-14T12:59:54.224Z,10.63
2022-09-14T13:02:47.433Z,11.45
2022-09-14T13:05:23.582Z,11.75
2022-09-14T13:07:51.459Z,9.60
2022-09-14T13:10:33.235Z,10.80
2022-09-14T13:13:13.374Z,11.05
2022-09-14T13:15:59.598Z,10.07
2022-09-14T13:18:36.346Z,10.90
2022-09-14T13:21:22.593Z,8.05
2022-09-14T13:23:49.608Z,6.30
2022-09-14T13:26:24.640Z,6.40
2022-09-14T13:28:54.081Z,8.15
2022-09-14T13:31:39.539Z,7.47
2022-09-14T13:34:06.875Z,8.68
2022-09-14T13:36:40.343Z,7.88
2022-09-14T13:39:24.708Z,7.28
2022-09-14T13:41:52.312Z,5.80
2022-09-14T13:44:34.094Z,5.72
2022-09-14T13:47:05.041Z,7.32
2022-09-14T13:49:32.285Z,6.70
2022-09-14T13:52:25.899Z,5.68
2022-09-14T13:55:42.850Z,5.10
2022-09-14T13:58:09.601Z,8.30
2022-09-14T14:00:59.559Z,9.02
2022-09-14T14:03:29.090Z,5.05
2022-09-14T14:05:56.049Z,5.40
2022-09-14T14:08:37.344Z,6.00
2022-09-14T14:11:07.130Z,9.73
2022-09-14T14:13:37.486Z,7.28
2022-09-14T14:16:23.831Z,6.32
2022-09-14T14:18:58.585Z,6.72
2022-09-14T14:21:31.140Z,8.25
2022-09-14T14:24:26.599Z,6.50
2022-09-14T14:26:57.581Z,9.18
2022-09-14T14:29:25.697Z,9.10
2022-09-14T14:31:56.268Z,6.45
2022-09-14T14:34:30.041Z,7.78
2022-09-14T14:36:56.891Z,8.07
2022-09-14T14:39:25.369Z,5.18
2022-09-14T14:41:53.182Z,8.50
2022-09-14T14:44:24.804Z,7.13
2022-09-14T14:46:51.958Z,8.02
2022-09-14T14:49:20.621Z,5.00
2022-09-14T14:51:48.077Z,8.77
2022-09-14T14:54:18.682Z,4.85
2022-09-14T14:56:47.846Z,6.47
2022-09-14T14:59:20.672Z,7.80
2022-09-14T15:01:54.173Z,10.07
2022-09-14T15:04:21.647Z,4.75
2022-09-14T15:06:48.734Z,8.73
2022-09-14T15:09:27.543Z,7.95
2022-09-14T15:11:54.729Z,7.55
2022-09-14T15:14:27.101Z,5.57
2022-09-14T15:16:59.537Z,8.30
2022-09-14T15:19:26.972Z,7.97
2022-09-14T15:21:58.620Z,6.68
2022-09-14T15:24:27.871Z,4.93
2022-09-14T15:26:54.649Z,8.43
2022-09-14T15:29:21.482Z,9.63
2022-09-14T15:31:48.313Z,5.35
2022-09-14T15:34:15.182Z,7.70
2022-09-14T15:36:53.038Z,6.28
2022-09-14T15:39:24.901Z,10.82
2022-09-14T15:41:52.778Z,11.70
2022-09-14T15:44:19.942Z,8.60
2022-09-14T15:46:47.879Z,6.93
2022-09-14T15:49:25.594Z,5.38
2022-09-14T15:51:55.371Z,6.80
2022-09-14T15:54:25.748Z,4.60
2022-09-14T15:56:56.477Z,7.47
2022-09-14T15:59:23.376Z,6.75
2022-09-14T16:01:50.328Z,7.13
2022-09-14T16:04:18.069Z,5.97
2022-09-14T16:06:45.340Z,6.25
2022-09-14T16:09:14.980Z,7.82
2022-09-14T16:11:42.409Z,9.98
2022-09-14T16:14:10.765Z,28.52
2022-09-14T16:16:38.951Z,12.23
2022-09-14T16:19:13.735Z,6.75
2022-09-14T16:21:42.188Z,10.07
2022-09-14T16:24:17.942Z,9.77
2022-09-14T16:26:45.650Z,55.58
2022-09-14T16:29:15.574Z,50.83
2022-09-14T16:31:45.287Z,27.02
2022-09-14T16:34:21.206Z,13.65
2022-09-14T16:36:48.500Z,14.27
2022-09-14T16:39:19.349Z,12.48
2022-09-14T16:41:47.077Z,15.98
2022-09-14T16:44:19.457Z,20.85
2022-09-14T16:46:48.664Z,18.27
2022-09-14T16:49:21.367Z,24.00
2022-09-14T16:51:52.305Z,24.42
2022-09-14T16:54:22.320Z,16.45
2022-09-14T16:56:51.190Z,16.95
2022-09-14T16:59:20.758Z,13.80
2022-09-14T17:01:52.083Z,11.10
2022-09-14T17:04:22.073Z,5.90
2022-09-14T17:06:51.381Z,6.43
2022-09-14T17:09:31.406Z,7.10
2022-09-14T17:11:59.224Z,12.65
2022-09-14T17:14:31.183Z,8.27
2022-09-14T17:17:00.120Z,6.22
2022-09-14T17:19:28.106Z,13.98
2022-09-14T17:21:55.377Z,10.40
2022-09-14T17:24:22.304Z,7.13
2022-09-14T17:26:49.262Z,5.85
2022-09-14T17:29:18.187Z,4.90
2022-09-14T17:31:46.199Z,6.57
2022-09-14T17:34:16.798Z,7.40
2022-09-14T17:36:45.005Z,4.65
2022-09-14T17:39:13.900Z,3.63
2022-09-14T17:41:43.817Z,7.18
2022-09-14T17:44:14.788Z,7.32
2022-09-14T17:46:52.223Z,5.78
2022-09-14T17:49:29.506Z,5.35
2022-09-14T17:51:56.404Z,8.43
2022-09-14T17:54:25.444Z,8.15
2022-09-14T17:59:33.439Z,5.10
2022-09-14T18:02:07.763Z,13.30
2022-09-14T18:04:37.059Z,13.68
2022-09-14T18:07:08.638Z,9.88
2022-09-14T18:09:35.948Z,12.77
2022-09-14T18:12:04.670Z,10.52
2022-09-14T18:14:31.967Z,8.27
2022-09-14T18:17:00.701Z,10.57
2022-09-14T18:19:27.531Z,8.45
2022-09-14T18:21:54.962Z,11.15
2022-09-14T18:24:22.487Z,8.35
2022-09-14T18:26:49.841Z,8.77
2022-09-14T18:29:25.820Z,19.23
2022-09-14T18:31:53.891Z,14.52
2022-09-14T18:34:22.959Z,14.52
2022-09-14T18:36:52.193Z,22.25
2022-09-14T18:39:19.645Z,14.88
2022-09-14T18:41:52.846Z,11.05
2022-09-14T18:44:23.450Z,6.72
2022-09-14T18:46:51.482Z,13.52
2022-09-14T18:49:18.320Z,7.00
2022-09-14T18:51:45.141Z,8.70
2022-09-14T18:54:13.732Z,10.95
2022-09-14T18:56:41.332Z,11.65
2022-09-14T18:59:15.346Z,7.45
2022-09-14T19:01:43.765Z,9.82
2022-09-14T19:04:11.999Z,13.27
2022-09-14T19:06:40.839Z,7.90
2022-09-14T19:09:09.751Z,5.45
2022-09-14T19:11:37.938Z,4.43
2022-09-14T19:14:10.908Z,5.68
2022-09-14T19:19:08.968Z,8.25
2022-09-14T19:21:37.189Z,4.93
2022-09-14T19:24:09.720Z,4.95
2022-09-14T19:26:47.643Z,11.90
2022-09-14T19:29:18.077Z,6.05
2022-09-14T19:31:45.256Z,6.95
2022-09-14T19:34:12.588Z,11.20
2022-09-14T19:36:39.617Z,6.10
2022-09-14T19:39:07.974Z,7.78
2022-09-14T19:41:35.799Z,5.28
2022-09-14T19:44:06.537Z,4.97
2022-09-14T19:46:36.010Z,4.55
2022-09-14T19:49:03.032Z,4.85
2022-09-14T19:51:30.927Z,7.18
2022-09-14T19:54:00.622Z,13.80
2022-09-14T19:56:31.412Z,6.97
2022-09-14T19:59:01.053Z,10.32
2022-09-14T20:01:30.760Z,23.90
2022-09-14T20:03:58.411Z,14.27
2022-09-14T20:06:32.158Z,6.75
2022-09-14T20:09:09.778Z,16.90
2022-09-14T20:11:40.111Z,19.10
2022-09-14T20:14:10.139Z,16.20
2022-09-14T20:16:46.280Z,17.25
2022-09-14T20:19:17.322Z,19.77
2022-09-14T20:21:46.336Z,11.63
2022-09-14T20:24:27.493Z,6.85
2022-09-14T20:27:00.357Z,10.13
2022-09-14T20:29:30.765Z,6.97
2022-09-14T20:31:58.723Z,9.63
2022-09-14T20:34:26.356Z,6.93
2022-09-14T20:36:55.424Z,8.48
2022-09-14T20:39:24.589Z,8.82
2022-09-14T20:41:52.033Z,14.32
2022-09-14T20:44:22.292Z,10.35
2022-09-14T20:46:50.080Z,9.55
2022-09-14T20:49:21.657Z,10.63
2022-09-14T20:51:50.104Z,12.13
2022-09-14T20:54:18.641Z,10.73
2022-09-14T20:56:47.560Z,14.25
2022-09-14T20:59:18.375Z,6.05
2022-09-14T21:01:50.360Z,16.15
2022-09-14T21:04:21.365Z,8.48
2022-09-14T21:06:54.438Z,5.93
2022-09-14T21:11:53.777Z,9.38
2022-09-14T21:14:21.672Z,8.85
2022-09-14T21:16:52.791Z,7.30
2022-09-14T21:19:25.022Z,5.90
2022-09-14T21:21:52.467Z,8.30
2022-09-14T21:24:23.270Z,8.15
2022-09-14T21:26:51.437Z,15.15
2022-09-14T21:29:23.813Z,11.27
2022-09-14T21:31:51.847Z,7.68
2022-09-14T21:34:18.859Z,15.60
2022-09-14T21:36:49.444Z,7.20
2022-09-14T21:39:23.327Z,7.40
2022-09-14T21:41:58.025Z,5.30
2022-09-14T21:44:31.034Z,8.25
2022-09-14T21:46:58.361Z,11.93
2022-09-14T21:49:25.222Z,4.47
2022-09-14T21:51:52.010Z,8.07
2022-09-14T21:54:19.093Z,9.52
2022-09-14T21:56:47.156Z,6.45
2022-09-14T21:59:19.256Z,9.10
2022-09-14T22:01:47.009Z,4.17
2022-09-14T22:04:22.123Z,5.07
2022-09-14T22:06:51.168Z,4.53
2022-09-14T22:09:22.110Z,11.90
2022-09-14T22:11:49.548Z,5.40
2022-09-14T22:14:23.134Z,5.70
2022-09-14T22:16:51.951Z,6.30
2022-09-14T22:19:29.905Z,8.70
2022-09-14T22:21:57.423Z,8.10
2022-09-14T22:24:37.078Z,7.70
2022-09-14T22:27:11.135Z,7.25
2022-09-14T22:29:40.698Z,6.75
2022-09-14T22:32:08.305Z,9.07
2022-09-14T22:34:36.385Z,10.95
2022-09-14T22:37:03.530Z,9.75
2022-09-14T22:39:30.324Z,10.15
2022-09-14T22:41:57.101Z,11.43
2022-09-14T22:44:23.864Z,9.93
2022-09-14T22:46:50.745Z,10.38
2022-09-14T22:49:17.612Z,13.10
2022-09-14T22:51:44.347Z,7.03
2022-09-14T22:54:25.296Z,7.75
2022-09-14T22:57:01.645Z,8.13
2022-09-14T22:59:36.414Z,6.57
2022-09-14T23:02:03.250Z,11.15
2022-09-14T23:04:31.074Z,8.75
2022-09-14T23:07:01.560Z,19.15
2022-09-14T23:09:28.384Z,12.55
2022-09-14T23:11:55.299Z,8.07
2022-09-14T23:14:23.066Z,9.70
2022-09-14T23:16:51.043Z,10.05
2022-09-14T23:19:21.195Z,14.45
2022-09-14T23:21:55.324Z,9.63
2022-09-14T23:24:22.494Z,7.15
2022-09-14T23:27:05.873Z,7.40
2022-09-14T23:29:33.489Z,8.18
2022-09-14T23:32:00.645Z,9.95
2022-09-14T23:34:27.796Z,8.95
2022-09-14T23:36:56.946Z,11.98
2022-09-14T23:39:25.569Z,12.20
2022-09-14T23:41:53.243Z,12.93
2022-09-14T23:44:22.532Z,13.02
2022-09-14T23:46:49.716Z,10.82
2022-09-14T23:49:17.150Z,11.70
2022-09-14T23:51:44.268Z,13.38
2022-09-14T23:54:23.349Z,12.60
2022-09-14T23:56:57.387Z,9.20
2022-09-14T23:59:27.188Z,11.65
